sensor_id;sensor_type;location;lat;lon;timestamp;P1;durP1;ratioP1;P2;durP2;ratioP2
14516;SDS011;7344;50.864;4.362;2023-08-17T00:02:16;4.82;;;3.45;;
14516;SDS011;7344;50.864;4.362;2023-08-17T00:04:41;3.00;;;2.80;;
14516;SDS011;7344;50.864;4.362;2023-08-17T00:07:07;4.22;;;3.13;;
14516;SDS011;7344;50.864;4.362;2023-08-17T00:09:33;3.88;;;3.58;;
14516;SDS011;7344;50.864;4.362;2023-08-17T00:11:58;3.22;;;2.95;;
14516;SDS011;7344;50.864;4.362;2023-08-17T00:14:24;4.25;;;3.00;;
14516;SDS011;7344;50.864;4.362;2023-08-17T00:16:50;3.17;;;2.90;;
14516;SDS011;7344;50.864;4.362;2023-08-17T00:19:16;5.60;;;2.80;;
14516;SDS011;7344;50.864;4.362;2023-08-17T00:21:44;3.58;;;3.00;;
14516;SDS011;7344;50.864;4.362;2023-08-17T00:24:10;4.47;;;3.17;;
14516;SDS011;7344;50.864;4.362;2023-08-17T00:26:36;3.30;;;3.00;;
14516;SDS011;7344;50.864;4.362;2023-08-17T00:29:02;3.80;;;3.10;;
14516;SDS011;7344;50.864;4.362;2023-08-17T00:31:27;4.53;;;3.45;;
14516;SDS011;7344;50.864;4.362;2023-08-17T00:33:53;4.70;;;3.10;;
14516;SDS011;7344;50.864;4.362;2023-08-17T00:36:19;4.72;;;3.00;;
14516;SDS011;7344;50.864;4.362;2023-08-17T00:38:44;4.32;;;3.67;;
14516;SDS011;7344;50.864;4.362;2023-08-17T00:41:10;6.13;;;3.45;;
14516;SDS011;7344;50.864;4.362;2023-08-17T00:43:35;3.97;;;3.42;;
14516;SDS011;7344;50.864;4.362;2023-08-17T00:46:01;4.22;;;3.35;;
14516;SDS011;7344;50.864;4.362;2023-08-17T00:48:27;5.85;;;3.58;;
14516;SDS011;7344;50.864;4.362;2023-08-17T00:50:56;5.70;;;3.40;;
14516;SDS011;7344;50.864;4.362;2023-08-17T00:53:24;3.55;;;3.22;;
14516;SDS011;7344;50.864;4.362;2023-08-17T00:55:54;5.43;;;3.67;;
14516;SDS011;7344;50.864;4.362;2023-08-17T00:58:20;6.03;;;3.83;;
14516;SDS011;7344;50.864;4.362;2023-08-17T01:00:46;4.30;;;3.78;;
14516;SDS011;7344;50.864;4.362;2023-08-17T01:03:12;5.28;;;4.00;;
14516;SDS011;7344;50.864;4.362;2023-08-17T01:05:38;5.45;;;4.38;;
14516;SDS011;7344;50.864;4.362;2023-08-17T01:08:04;7.50;;;3.85;;
14516;SDS011;7344;50.864;4.362;2023-08-17T01:10:37;4.15;;;3.85;;
14516;SDS011;7344;50.864;4.362;2023-08-17T01:13:35;4.35;;;3.95;;
14516;SDS011;7344;50.864;4.362;2023-08-17T01:16:05;5.07;;;4.32;;
14516;SDS011;7344;50.864;4.362;2023-08-17T01:18:37;4.22;;;3.90;;
14516;SDS011;7344;50.864;4.362;2023-08-17T01:21:06;4.47;;;3.75;;
14516;SDS011;7344;50.864;4.362;2023-08-17T01:23:34;4.85;;;4.25;;
14516;SDS011;7344;50.864;4.362;2023-08-17T01:26:00;5.07;;;4.50;;
14516;SDS011;7344;50.864;4.362;2023-08-17T01:28:26;5.20;;;4.10;;
14516;SDS011;7344;50.864;4.362;2023-08-17T01:30:57;4.03;;;3.72;;
14516;SDS011;7344;50.864;4.362;2023-08-17T01:33:44;4.80;;;4.40;;
14516;SDS011;7344;50.864;4.362;2023-08-17T01:36:33;4.80;;;4.35;;
14516;SDS011;7344;50.864;4.362;2023-08-17T01:39:02;5.80;;;4.45;;
14516;SDS011;7344;50.864;4.362;2023-08-17T01:41:29;4.70;;;4.30;;
14516;SDS011;7344;50.864;4.362;2023-08-17T01:43:56;6.05;;;5.25;;
14516;SDS011;7344;50.864;4.362;2023-08-17T01:46:24;5.43;;;4.40;;
14516;SDS011;7344;50.864;4.362;2023-08-17T01:48:54;4.82;;;4.35;;
14516;SDS011;7344;50.864;4.362;2023-08-17T01:51:21;5.97;;;4.28;;
14516;SDS011;7344;50.864;4.362;2023-08-17T01:53:46;5.07;;;4.35;;
14516;SDS011;7344;50.864;4.362;2023-08-17T01:56:12;4.30;;;4.00;;
14516;SDS011;7344;50.864;4.362;2023-08-17T01:58:38;4.72;;;4.32;;
14516;SDS011;7344;50.864;4.362;2023-08-17T02:01:03;6.15;;;4.38;;
14516;SDS011;7344;50.864;4.362;2023-08-17T02:03:29;4.78;;;4.35;;
14516;SDS011;7344;50.864;4.362;2023-08-17T02:05:58;4.97;;;4.32;;
14516;SDS011;7344;50.864;4.362;2023-08-17T02:08:24;4.82;;;4.15;;
14516;SDS011;7344;50.864;4.362;2023-08-17T02:10:50;6.38;;;4.05;;
14516;SDS011;7344;50.864;4.362;2023-08-17T02:13:16;4.93;;;4.28;;
14516;SDS011;7344;50.864;4.362;2023-08-17T02:15:42;4.65;;;4.25;;
14516;SDS011;7344;50.864;4.362;2023-08-17T02:18:08;6.95;;;4.15;;
14516;SDS011;7344;50.864;4.362;2023-08-17T02:20:34;4.75;;;4.30;;
14516;SDS011;7344;50.864;4.362;2023-08-17T02:23:00;4.28;;;3.85;;
14516;SDS011;7344;50.864;4.362;2023-08-17T02:25:26;4.70;;;4.05;;
14516;SDS011;7344;50.864;4.362;2023-08-17T02:27:52;7.22;;;3.92;;
14516;SDS011;7344;50.864;4.362;2023-08-17T02:30:18;4.07;;;3.75;;
14516;SDS011;7344;50.864;4.362;2023-08-17T02:32:43;4.60;;;4.25;;
14516;SDS011;7344;50.864;4.362;2023-08-17T02:35:09;6.40;;;4.22;;
14516;SDS011;7344;50.864;4.362;2023-08-17T02:37:34;5.32;;;4.20;;
14516;SDS011;7344;50.864;4.362;2023-08-17T02:40:00;5.40;;;4.28;;
14516;SDS011;7344;50.864;4.362;2023-08-17T02:42:26;5.53;;;4.10;;
14516;SDS011;7344;50.864;4.362;2023-08-17T02:44:51;7.47;;;4.80;;
14516;SDS011;7344;50.864;4.362;2023-08-17T02:47:17;7.82;;;4.63;;
14516;SDS011;7344;50.864;4.362;2023-08-17T02:49:42;5.70;;;4.43;;
14516;SDS011;7344;50.864;4.362;2023-08-17T02:52:08;5.57;;;5.00;;
14516;SDS011;7344;50.864;4.362;2023-08-17T02:54:34;6.00;;;4.68;;
14516;SDS011;7344;50.864;4.362;2023-08-17T02:56:59;5.35;;;3.70;;
14516;SDS011;7344;50.864;4.362;2023-08-17T02:59:25;5.28;;;4.72;;
14516;SDS011;7344;50.864;4.362;2023-08-17T03:01:50;5.03;;;4.53;;
14516;SDS011;7344;50.864;4.362;2023-08-17T03:04:16;5.05;;;4.45;;
14516;SDS011;7344;50.864;4.362;2023-08-17T03:06:42;6.28;;;4.30;;
14516;SDS011;7344;50.864;4.362;2023-08-17T03:09:07;5.63;;;4.53;;
14516;SDS011;7344;50.864;4.362;2023-08-17T03:11:33;5.22;;;4.72;;
14516;SDS011;7344;50.864;4.362;2023-08-17T03:13:59;5.82;;;4.85;;
14516;SDS011;7344;50.864;4.362;2023-08-17T03:16:28;5.05;;;4.68;;
14516;SDS011;7344;50.864;4.362;2023-08-17T03:18:55;5.40;;;4.80;;
14516;SDS011;7344;50.864;4.362;2023-08-17T03:21:21;5.65;;;4.60;;
14516;SDS011;7344;50.864;4.362;2023-08-17T03:23:46;5.90;;;5.25;;
14516;SDS011;7344;50.864;4.362;2023-08-17T03:26:12;5.22;;;4.63;;
14516;SDS011;7344;50.864;4.362;2023-08-17T03:28:38;7.03;;;4.70;;
14516;SDS011;7344;50.864;4.362;2023-08-17T03:31:03;7.05;;;4.78;;
14516;SDS011;7344;50.864;4.362;2023-08-17T03:33:29;9.18;;;4.93;;
14516;SDS011;7344;50.864;4.362;2023-08-17T03:35:54;6.00;;;5.00;;
14516;SDS011;7344;50.864;4.362;2023-08-17T03:38:20;5.30;;;4.80;;
14516;SDS011;7344;50.864;4.362;2023-08-17T03:40:49;5.35;;;4.53;;
14516;SDS011;7344;50.864;4.362;2023-08-17T03:43:15;7.05;;;4.88;;
14516;SDS011;7344;50.864;4.362;2023-08-17T03:45:41;10.20;;;4.78;;
14516;SDS011;7344;50.864;4.362;2023-08-17T03:48:06;7.70;;;4.50;;
14516;SDS011;7344;50.864;4.362;2023-08-17T03:50:32;5.00;;;4.13;;
14516;SDS011;7344;50.864;4.362;2023-08-17T03:52:58;4.93;;;4.47;;
14516;SDS011;7344;50.864;4.362;2023-08-17T03:55:24;5.30;;;4.65;;
14516;SDS011;7344;50.864;4.362;2023-08-17T03:57:49;4.93;;;4.20;;
14516;SDS011;7344;50.864;4.362;2023-08-17T04:00:15;5.57;;;4.50;;
14516;SDS011;7344;50.864;4.362;2023-08-17T04:02:41;5.78;;;4.65;;
14516;SDS011;7344;50.864;4.362;2023-08-17T04:05:06;5.85;;;4.82;;
14516;SDS011;7344;50.864;4.362;2023-08-17T04:07:32;7.35;;;4.68;;
14516;SDS011;7344;50.864;4.362;2023-08-17T04:09:58;5.93;;;4.15;;
14516;SDS011;7344;50.864;4.362;2023-08-17T04:12:23;7.70;;;4.38;;
14516;SDS011;7344;50.864;4.362;2023-08-17T04:14:49;8.90;;;4.47;;
14516;SDS011;7344;50.864;4.362;2023-08-17T04:17:14;6.88;;;4.60;;
14516;SDS011;7344;50.864;4.362;2023-08-17T04:19:40;5.32;;;4.43;;
14516;SDS011;7344;50.864;4.362;2023-08-17T04:22:06;10.52;;;4.75;;
14516;SDS011;7344;50.864;4.362;2023-08-17T04:24:31;8.20;;;4.57;;
14516;SDS011;7344;50.864;4.362;2023-08-17T04:26:57;9.02;;;4.95;;
14516;SDS011;7344;50.864;4.362;2023-08-17T04:29:22;5.70;;;4.80;;
14516;SDS011;7344;50.864;4.362;2023-08-17T04:31:48;11.43;;;4.80;;
14516;SDS011;7344;50.864;4.362;2023-08-17T04:34:13;8.05;;;4.53;;
14516;SDS011;7344;50.864;4.362;2023-08-17T04:36:39;9.68;;;5.00;;
14516;SDS011;7344;50.864;4.362;2023-08-17T04:39:05;8.27;;;5.05;;
14516;SDS011;7344;50.864;4.362;2023-08-17T04:41:31;9.45;;;4.93;;
14516;SDS011;7344;50.864;4.362;2023-08-17T04:43:57;8.68;;;5.25;;
14516;SDS011;7344;50.864;4.362;2023-08-17T04:46:22;7.55;;;4.50;;
14516;SDS011;7344;50.864;4.362;2023-08-17T04:48:48;5.60;;;5.05;;
14516;SDS011;7344;50.864;4.362;2023-08-17T04:51:14;11.35;;;5.13;;
14516;SDS011;7344;50.864;4.362;2023-08-17T04:53:40;6.10;;;4.43;;
14516;SDS011;7344;50.864;4.362;2023-08-17T04:56:06;8.95;;;5.13;;
14516;SDS011;7344;50.864;4.362;2023-08-17T04:58:31;9.20;;;4.80;;
14516;SDS011;7344;50.864;4.362;2023-08-17T05:00:58;8.95;;;4.90;;
14516;SDS011;7344;50.864;4.362;2023-08-17T05:03:24;8.45;;;4.97;;
14516;SDS011;7344;50.864;4.362;2023-08-17T05:05:51;6.03;;;4.75;;
14516;SDS011;7344;50.864;4.362;2023-08-17T05:08:18;8.85;;;5.13;;
14516;SDS011;7344;50.864;4.362;2023-08-17T05:10:43;5.82;;;4.80;;
14516;SDS011;7344;50.864;4.362;2023-08-17T05:13:09;7.90;;;4.78;;
14516;SDS011;7344;50.864;4.362;2023-08-17T05:15:35;5.30;;;4.60;;
14516;SDS011;7344;50.864;4.362;2023-08-17T05:18:00;7.50;;;4.30;;
14516;SDS011;7344;50.864;4.362;2023-08-17T05:20:26;10.07;;;4.50;;
14516;SDS011;7344;50.864;4.362;2023-08-17T05:22:51;12.70;;;4.95;;
14516;SDS011;7344;50.864;4.362;2023-08-17T05:25:17;8.67;;;4.97;;
14516;SDS011;7344;50.864;4.362;2023-08-17T05:27:43;6.80;;;4.82;;
14516;SDS011;7344;50.864;4.362;2023-08-17T05:30:08;6.70;;;4.60;;
14516;SDS011;7344;50.864;4.362;2023-08-17T05:32:34;5.20;;;4.57;;
14516;SDS011;7344;50.864;4.362;2023-08-17T05:34:59;11.25;;;4.60;;
14516;SDS011;7344;50.864;4.362;2023-08-17T05:37:25;8.03;;;4.70;;
14516;SDS011;7344;50.864;4.362;2023-08-17T05:39:51;7.40;;;4.70;;
14516;SDS011;7344;50.864;4.362;2023-08-17T05:42:16;6.57;;;4.80;;
14516;SDS011;7344;50.864;4.362;2023-08-17T05:44:42;9.98;;;4.78;;
14516;SDS011;7344;50.864;4.362;2023-08-17T05:47:07;9.15;;;4.72;;
14516;SDS011;7344;50.864;4.362;2023-08-17T05:49:33;7.60;;;4.00;;
14516;SDS011;7344;50.864;4.362;2023-08-17T05:51:59;5.55;;;4.30;;
14516;SDS011;7344;50.864;4.362;2023-08-17T05:54:24;10.07;;;4.50;;
14516;SDS011;7344;50.864;4.362;2023-08-17T05:56:50;7.78;;;4.28;;
14516;SDS011;7344;50.864;4.362;2023-08-17T05:59:15;8.32;;;4.60;;
14516;SDS011;7344;50.864;4.362;2023-08-17T06:01:41;7.20;;;4.50;;
14516;SDS011;7344;50.864;4.362;2023-08-17T06:04:07;13.20;;;4.80;;
14516;SDS011;7344;50.864;4.362;2023-08-17T06:06:32;10.45;;;4.43;;
14516;SDS011;7344;50.864;4.362;2023-08-17T06:08:58;10.77;;;4.70;;
14516;SDS011;7344;50.864;4.362;2023-08-17T06:11:24;6.72;;;4.50;;
14516;SDS011;7344;50.864;4.362;2023-08-17T06:13:50;7.57;;;4.32;;
14516;SDS011;7344;50.864;4.362;2023-08-17T06:16:15;9.40;;;4.65;;
14516;SDS011;7344;50.864;4.362;2023-08-17T06:18:41;12.00;;;4.68;;
14516;SDS011;7344;50.864;4.362;2023-08-17T06:21:07;8.02;;;4.55;;
14516;SDS011;7344;50.864;4.362;2023-08-17T06:23:33;5.97;;;4.57;;
14516;SDS011;7344;50.864;4.362;2023-08-17T06:25:59;6.00;;;4.78;;
14516;SDS011;7344;50.864;4.362;2023-08-17T06:28:25;11.82;;;4.90;;
14516;SDS011;7344;50.864;4.362;2023-08-17T06:30:54;7.90;;;4.85;;
14516;SDS011;7344;50.864;4.362;2023-08-17T06:33:20;6.50;;;4.57;;
14516;SDS011;7344;50.864;4.362;2023-08-17T06:35:47;6.90;;;5.03;;
14516;SDS011;7344;50.864;4.362;2023-08-17T06:38:14;9.95;;;4.82;;
14516;SDS011;7344;50.864;4.362;2023-08-17T06:40:39;8.98;;;4.93;;
14516;SDS011;7344;50.864;4.362;2023-08-17T06:43:05;7.13;;;4.72;;
14516;SDS011;7344;50.864;4.362;2023-08-17T06:45:31;6.95;;;4.80;;
14516;SDS011;7344;50.864;4.362;2023-08-17T06:47:57;8.55;;;4.95;;
14516;SDS011;7344;50.864;4.362;2023-08-17T06:50:23;6.88;;;4.47;;
14516;SDS011;7344;50.864;4.362;2023-08-17T06:52:49;7.22;;;4.47;;
14516;SDS011;7344;50.864;4.362;2023-08-17T06:55:15;7.78;;;4.88;;
14516;SDS011;7344;50.864;4.362;2023-08-17T06:57:41;6.70;;;4.75;;
14516;SDS011;7344;50.864;4.362;2023-08-17T07:00:07;9.35;;;5.30;;
14516;SDS011;7344;50.864;4.362;2023-08-17T07:02:33;7.72;;;4.82;;
14516;SDS011;7344;50.864;4.362;2023-08-17T07:04:59;7.78;;;5.22;;
14516;SDS011;7344;50.864;4.362;2023-08-17T07:07:25;7.68;;;5.32;;
14516;SDS011;7344;50.864;4.362;2023-08-17T07:09:51;10.68;;;5.80;;
14516;SDS011;7344;50.864;4.362;2023-08-17T07:12:17;8.60;;;6.05;;
14516;SDS011;7344;50.864;4.362;2023-08-17T07:14:44;12.27;;;6.78;;
14516;SDS011;7344;50.864;4.362;2023-08-17T07:17:10;12.38;;;6.40;;
14516;SDS011;7344;50.864;4.362;2023-08-17T07:19:35;9.32;;;6.15;;
14516;SDS011;7344;50.864;4.362;2023-08-17T07:22:01;9.68;;;5.55;;
14516;SDS011;7344;50.864;4.362;2023-08-17T07:24:26;7.32;;;5.32;;
14516;SDS011;7344;50.864;4.362;2023-08-17T07:26:52;10.95;;;5.63;;
14516;SDS011;7344;50.864;4.362;2023-08-17T07:29:18;12.60;;;5.43;;
14516;SDS011;7344;50.864;4.362;2023-08-17T07:31:43;10.88;;;6.20;;
14516;SDS011;7344;50.864;4.362;2023-08-17T07:34:09;7.13;;;5.80;;
14516;SDS011;7344;50.864;4.362;2023-08-17T07:36:35;12.82;;;6.03;;
14516;SDS011;7344;50.864;4.362;2023-08-17T07:39:01;6.20;;;5.22;;
14516;SDS011;7344;50.864;4.362;2023-08-17T07:41:26;10.93;;;5.47;;
14516;SDS011;7344;50.864;4.362;2023-08-17T07:43:52;9.63;;;5.43;;
14516;SDS011;7344;50.864;4.362;2023-08-17T07:46:18;8.85;;;5.68;;
14516;SDS011;7344;50.864;4.362;2023-08-17T07:48:43;6.80;;;5.28;;
14516;SDS011;7344;50.864;4.362;2023-08-17T07:51:09;12.32;;;6.13;;
14516;SDS011;7344;50.864;4.362;2023-08-17T07:53:35;7.70;;;6.03;;
14516;SDS011;7344;50.864;4.362;2023-08-17T07:56:00;9.45;;;6.72;;
14516;SDS011;7344;50.864;4.362;2023-08-17T07:58:26;10.75;;;7.10;;
14516;SDS011;7344;50.864;4.362;2023-08-17T08:00:51;12.27;;;7.40;;
14516;SDS011;7344;50.864;4.362;2023-08-17T08:03:17;14.52;;;7.72;;
14516;SDS011;7344;50.864;4.362;2023-08-17T08:05:43;11.45;;;7.45;;
14516;SDS011;7344;50.864;4.362;2023-08-17T08:08:09;10.50;;;7.50;;
14516;SDS011;7344;50.864;4.362;2023-08-17T08:10:34;11.43;;;7.10;;
14516;SDS011;7344;50.864;4.362;2023-08-17T08:13:00;13.65;;;7.45;;
14516;SDS011;7344;50.864;4.362;2023-08-17T08:15:25;14.43;;;7.03;;
14516;SDS011;7344;50.864;4.362;2023-08-17T08:17:51;11.85;;;7.05;;
14516;SDS011;7344;50.864;4.362;2023-08-17T08:20:16;13.15;;;7.43;;
14516;SDS011;7344;50.864;4.362;2023-08-17T08:22:42;17.73;;;7.05;;
14516;SDS011;7344;50.864;4.362;2023-08-17T08:25:08;10.63;;;7.10;;
14516;SDS011;7344;50.864;4.362;2023-08-17T08:27:33;9.80;;;6.60;;
14516;SDS011;7344;50.864;4.362;2023-08-17T08:29:59;13.38;;;6.45;;
14516;SDS011;7344;50.864;4.362;2023-08-17T08:32:24;10.57;;;7.07;;
14516;SDS011;7344;50.864;4.362;2023-08-17T08:34:50;11.98;;;6.78;;
14516;SDS011;7344;50.864;4.362;2023-08-17T08:37:15;12.90;;;7.50;;
14516;SDS011;7344;50.864;4.362;2023-08-17T08:39:48;12.13;;;8.00;;
14516;SDS011;7344;50.864;4.362;2023-08-17T08:42:18;10.10;;;7.57;;
14516;SDS011;7344;50.864;4.362;2023-08-17T08:44:44;15.50;;;7.60;;
14516;SDS011;7344;50.864;4.362;2023-08-17T08:47:11;10.52;;;7.45;;
14516;SDS011;7344;50.864;4.362;2023-08-17T08:49:40;10.77;;;7.28;;
14516;SDS011;7344;50.864;4.362;2023-08-17T08:52:42;13.68;;;7.05;;
14516;SDS011;7344;50.864;4.362;2023-08-17T08:55:10;7.90;;;6.75;;
14516;SDS011;7344;50.864;4.362;2023-08-17T08:57:40;7.60;;;6.38;;
14516;SDS011;7344;50.864;4.362;2023-08-17T09:00:07;11.48;;;6.95;;
14516;SDS011;7344;50.864;4.362;2023-08-17T09:02:34;9.63;;;6.90;;
14516;SDS011;7344;50.864;4.362;2023-08-17T09:05:00;11.75;;;7.40;;
14516;SDS011;7344;50.864;4.362;2023-08-17T09:07:30;7.78;;;6.75;;
14516;SDS011;7344;50.864;4.362;2023-08-17T09:09:57;10.32;;;6.68;;
14516;SDS011;7344;50.864;4.362;2023-08-17T09:12:23;10.38;;;6.40;;
14516;SDS011;7344;50.864;4.362;2023-08-17T09:14:50;14.25;;;7.05;;
14516;SDS011;7344;50.864;4.362;2023-08-17T09:17:25;10.30;;;6.55;;
14516;SDS011;7344;50.864;4.362;2023-08-17T09:19:51;7.28;;;5.93;;
14516;SDS011;7344;50.864;4.362;2023-08-17T09:22:23;8.85;;;5.72;;
14516;SDS011;7344;50.864;4.362;2023-08-17T09:25:02;10.73;;;5.30;;
14516;SDS011;7344;50.864;4.362;2023-08-17T09:27:27;7.80;;;7.00;;
14516;SDS011;7344;50.864;4.362;2023-08-17T09:30:00;8.07;;;7.05;;
14516;SDS011;7344;50.864;4.362;2023-08-17T09:32:30;10.30;;;7.00;;
14516;SDS011;7344;50.864;4.362;2023-08-17T09:34:56;8.25;;;6.57;;
14516;SDS011;7344;50.864;4.362;2023-08-17T09:37:32;10.50;;;6.80;;
14516;SDS011;7344;50.864;4.362;2023-08-17T09:39:59;8.25;;;6.85;;
14516;SDS011;7344;50.864;4.362;2023-08-17T09:42:24;10.30;;;7.13;;
14516;SDS011;7344;50.864;4.362;2023-08-17T09:44:52;10.27;;;6.72;;
14516;SDS011;7344;50.864;4.362;2023-08-17T09:47:19;12.70;;;8.00;;
14516;SDS011;7344;50.864;4.362;2023-08-17T09:49:48;10.95;;;7.78;;
14516;SDS011;7344;50.864;4.362;2023-08-17T09:52:21;10.40;;;7.75;;
14516;SDS011;7344;50.864;4.362;2023-08-17T09:54:47;11.48;;;7.50;;
14516;SDS011;7344;50.864;4.362;2023-08-17T09:57:13;9.55;;;8.20;;
14516;SDS011;7344;50.864;4.362;2023-08-17T09:59:39;8.80;;;7.35;;
14516;SDS011;7344;50.864;4.362;2023-08-17T10:02:18;10.93;;;8.90;;
14516;SDS011;7344;50.864;4.362;2023-08-17T10:04:49;10.88;;;8.25;;
14516;SDS011;7344;50.864;4.362;2023-08-17T10:07:17;9.18;;;7.90;;
14516;SDS011;7344;50.864;4.362;2023-08-17T10:09:45;12.00;;;6.82;;
14516;SDS011;7344;50.864;4.362;2023-08-17T10:12:17;9.90;;;7.10;;
14516;SDS011;7344;50.864;4.362;2023-08-17T10:14:53;10.77;;;7.70;;
14516;SDS011;7344;50.864;4.362;2023-08-17T10:17:27;12.25;;;7.18;;
14516;SDS011;7344;50.864;4.362;2023-08-17T10:19:59;9.63;;;7.28;;
14516;SDS011;7344;50.864;4.362;2023-08-17T10:25:16;11.60;;;8.02;;
14516;SDS011;7344;50.864;4.362;2023-08-17T10:27:43;8.52;;;7.70;;
14516;SDS011;7344;50.864;4.362;2023-08-17T10:30:10;13.07;;;9.27;;
14516;SDS011;7344;50.864;4.362;2023-08-17T10:32:36;9.43;;;8.30;;
14516;SDS011;7344;50.864;4.362;2023-08-17T10:35:03;9.25;;;7.68;;
14516;SDS011;7344;50.864;4.362;2023-08-17T10:37:30;12.88;;;8.20;;
14516;SDS011;7344;50.864;4.362;2023-08-17T10:39:57;9.93;;;7.32;;
14516;SDS011;7344;50.864;4.362;2023-08-17T10:42:32;10.20;;;7.82;;
14516;SDS011;7344;50.864;4.362;2023-08-17T10:45:00;12.20;;;10.35;;
14516;SDS011;7344;50.864;4.362;2023-08-17T10:47:31;13.65;;;12.05;;
14516;SDS011;7344;50.864;4.362;2023-08-17T10:50:20;14.85;;;12.02;;
14516;SDS011;7344;50.864;4.362;2023-08-17T10:52:47;13.18;;;8.13;;
14516;SDS011;7344;50.864;4.362;2023-08-17T10:55:14;13.48;;;9.65;;
14516;SDS011;7344;50.864;4.362;2023-08-17T10:57:41;11.73;;;8.77;;
14516;SDS011;7344;50.864;4.362;2023-08-17T11:00:08;10.40;;;8.80;;
14516;SDS011;7344;50.864;4.362;2023-08-17T11:02:38;9.18;;;8.20;;
14516;SDS011;7344;50.864;4.362;2023-08-17T11:05:05;9.90;;;8.48;;
14516;SDS011;7344;50.864;4.362;2023-08-17T11:07:44;9.55;;;8.55;;
14516;SDS011;7344;50.864;4.362;2023-08-17T11:10:11;8.27;;;7.47;;
14516;SDS011;7344;50.864;4.362;2023-08-17T11:12:45;8.30;;;7.40;;
14516;SDS011;7344;50.864;4.362;2023-08-17T11:15:11;9.48;;;7.38;;
14516;SDS011;7344;50.864;4.362;2023-08-17T11:17:37;8.27;;;7.47;;
14516;SDS011;7344;50.864;4.362;2023-08-17T11:20:08;10.48;;;8.55;;
14516;SDS011;7344;50.864;4.362;2023-08-17T11:22:34;9.23;;;8.32;;
14516;SDS011;7344;50.864;4.362;2023-08-17T11:25:00;8.63;;;7.78;;
14516;SDS011;7344;50.864;4.362;2023-08-17T11:27:26;8.82;;;7.85;;
14516;SDS011;7344;50.864;4.362;2023-08-17T11:29:55;10.65;;;8.00;;
14516;SDS011;7344;50.864;4.362;2023-08-17T11:32:20;9.23;;;8.40;;
14516;SDS011;7344;50.864;4.362;2023-08-17T11:34:46;11.43;;;9.32;;
14516;SDS011;7344;50.864;4.362;2023-08-17T11:37:11;10.90;;;8.48;;
14516;SDS011;7344;50.864;4.362;2023-08-17T11:39:37;10.23;;;8.45;;
14516;SDS011;7344;50.864;4.362;2023-08-17T11:42:03;10.20;;;7.80;;
14516;SDS011;7344;50.864;4.362;2023-08-17T11:44:29;10.23;;;7.40;;
14516;SDS011;7344;50.864;4.362;2023-08-17T11:46:55;13.32;;;7.95;;
14516;SDS011;7344;50.864;4.362;2023-08-17T11:49:20;13.43;;;7.88;;
14516;SDS011;7344;50.864;4.362;2023-08-17T11:51:49;11.50;;;7.60;;
14516;SDS011;7344;50.864;4.362;2023-08-17T11:54:16;10.07;;;9.18;;
14516;SDS011;7344;50.864;4.362;2023-08-17T11:56:41;9.25;;;8.07;;
14516;SDS011;7344;50.864;4.362;2023-08-17T11:59:10;8.82;;;7.70;;
14516;SDS011;7344;50.864;4.362;2023-08-17T12:01:39;13.35;;;7.80;;
14516;SDS011;7344;50.864;4.362;2023-08-17T12:04:05;11.00;;;8.32;;
14516;SDS011;7344;50.864;4.362;2023-08-17T12:06:31;10.75;;;7.57;;
14516;SDS011;7344;50.864;4.362;2023-08-17T12:08:57;13.25;;;8.45;;
14516;SDS011;7344;50.864;4.362;2023-08-17T12:11:24;11.23;;;9.00;;
14516;SDS011;7344;50.864;4.362;2023-08-17T12:13:53;12.43;;;8.30;;
14516;SDS011;7344;50.864;4.362;2023-08-17T12:16:19;10.48;;;8.60;;
14516;SDS011;7344;50.864;4.362;2023-08-17T12:18:48;10.85;;;9.13;;
14516;SDS011;7344;50.864;4.362;2023-08-17T12:21:14;9.50;;;8.40;;
14516;SDS011;7344;50.864;4.362;2023-08-17T12:23:40;15.55;;;10.13;;
14516;SDS011;7344;50.864;4.362;2023-08-17T12:26:07;12.88;;;8.93;;
14516;SDS011;7344;50.864;4.362;2023-08-17T12:28:33;12.30;;;9.57;;
14516;SDS011;7344;50.864;4.362;2023-08-17T12:30:59;11.60;;;10.32;;
14516;SDS011;7344;50.864;4.362;2023-08-17T12:33:26;12.57;;;9.95;;
14516;SDS011;7344;50.864;4.362;2023-08-17T12:35:51;12.38;;;10.13;;
14516;SDS011;7344;50.864;4.362;2023-08-17T12:38:17;13.00;;;10.23;;
14516;SDS011;7344;50.864;4.362;2023-08-17T12:40:42;15.52;;;10.30;;
14516;SDS011;7344;50.864;4.362;2023-08-17T12:43:08;14.32;;;10.93;;
14516;SDS011;7344;50.864;4.362;2023-08-17T12:45:34;15.57;;;11.68;;
14516;SDS011;7344;50.864;4.362;2023-08-17T12:48:00;13.80;;;10.70;;
14516;SDS011;7344;50.864;4.362;2023-08-17T12:50:25;17.80;;;11.15;;
14516;SDS011;7344;50.864;4.362;2023-08-17T12:52:51;12.75;;;11.10;;
14516;SDS011;7344;50.864;4.362;2023-08-17T12:55:16;18.13;;;13.52;;
14516;SDS011;7344;50.864;4.362;2023-08-17T12:57:42;13.82;;;11.35;;
14516;SDS011;7344;50.864;4.362;2023-08-17T13:00:08;15.77;;;12.07;;
14516;SDS011;7344;50.864;4.362;2023-08-17T13:02:34;13.63;;;12.23;;
14516;SDS011;7344;50.864;4.362;2023-08-17T13:04:59;17.67;;;12.18;;
14516;SDS011;7344;50.864;4.362;2023-08-17T13:07:25;15.90;;;11.75;;
14516;SDS011;7344;50.864;4.362;2023-08-17T13:09:50;17.17;;;12.07;;
14516;SDS011;7344;50.864;4.362;2023-08-17T13:12:16;20.88;;;13.05;;
14516;SDS011;7344;50.864;4.362;2023-08-17T13:14:42;17.70;;;13.15;;
14516;SDS011;7344;50.864;4.362;2023-08-17T13:17:07;13.45;;;12.15;;
14516;SDS011;7344;50.864;4.362;2023-08-17T13:19:33;14.73;;;12.25;;
14516;SDS011;7344;50.864;4.362;2023-08-17T13:21:58;17.15;;;12.30;;
14516;SDS011;7344;50.864;4.362;2023-08-17T13:24:24;18.25;;;12.77;;
14516;SDS011;7344;50.864;4.362;2023-08-17T13:26:50;14.48;;;12.98;;
14516;SDS011;7344;50.864;4.362;2023-08-17T13:29:18;17.45;;;14.65;;
14516;SDS011;7344;50.864;4.362;2023-08-17T13:31:46;17.73;;;14.18;;
14516;SDS011;7344;50.864;4.362;2023-08-17T13:34:12;18.08;;;13.95;;
14516;SDS011;7344;50.864;4.362;2023-08-17T13:36:38;20.73;;;14.65;;
14516;SDS011;7344;50.864;4.362;2023-08-17T13:39:04;21.88;;;14.90;;
14516;SDS011;7344;50.864;4.362;2023-08-17T13:41:29;19.95;;;14.88;;
14516;SDS011;7344;50.864;4.362;2023-08-17T13:43:55;19.55;;;14.95;;
14516;SDS011;7344;50.864;4.362;2023-08-17T13:46:22;18.80;;;15.80;;
14516;SDS011;7344;50.864;4.362;2023-08-17T13:48:48;16.02;;;14.32;;
14516;SDS011;7344;50.864;4.362;2023-08-17T13:51:14;16.30;;;14.60;;
14516;SDS011;7344;50.864;4.362;2023-08-17T13:53:39;19.77;;;14.38;;
14516;SDS011;7344;50.864;4.362;2023-08-17T13:56:05;17.58;;;14.60;;
14516;SDS011;7344;50.864;4.362;2023-08-17T13:58:31;20.02;;;15.05;;
14516;SDS011;7344;50.864;4.362;2023-08-17T14:00:56;19.73;;;15.40;;
14516;SDS011;7344;50.864;4.362;2023-08-17T14:03:22;21.52;;;15.02;;
14516;SDS011;7344;50.864;4.362;2023-08-17T14:05:48;18.58;;;15.20;;
14516;SDS011;7344;50.864;4.362;2023-08-17T14:08:14;15.95;;;13.90;;
14516;SDS011;7344;50.864;4.362;2023-08-17T14:10:39;15.98;;;14.23;;
14516;SDS011;7344;50.864;4.362;2023-08-17T14:13:05;16.23;;;14.43;;
14516;SDS011;7344;50.864;4.362;2023-08-17T14:15:30;15.98;;;14.27;;
14516;SDS011;7344;50.864;4.362;2023-08-17T14:17:56;18.92;;;13.00;;
14516;SDS011;7344;50.864;4.362;2023-08-17T14:20:22;17.50;;;14.55;;
14516;SDS011;7344;50.864;4.362;2023-08-17T14:22:47;19.10;;;14.15;;
14516;SDS011;7344;50.864;4.362;2023-08-17T14:25:13;15.00;;;12.57;;
14516;SDS011;7344;50.864;4.362;2023-08-17T14:27:40;16.52;;;14.52;;
14516;SDS011;7344;50.864;4.362;2023-08-17T14:30:06;15.15;;;13.60;;
14516;SDS011;7344;50.864;4.362;2023-08-17T14:32:32;15.10;;;13.70;;
14516;SDS011;7344;50.864;4.362;2023-08-17T14:34:58;14.38;;;11.52;;
14516;SDS011;7344;50.864;4.362;2023-08-17T14:37:23;16.95;;;14.43;;
14516;SDS011;7344;50.864;4.362;2023-08-17T14:39:49;15.85;;;12.85;;
14516;SDS011;7344;50.864;4.362;2023-08-17T14:42:14;15.25;;;13.75;;
14516;SDS011;7344;50.864;4.362;2023-08-17T14:44:40;17.60;;;13.25;;
14516;SDS011;7344;50.864;4.362;2023-08-17T14:47:06;15.50;;;12.57;;
14516;SDS011;7344;50.864;4.362;2023-08-17T14:49:31;16.30;;;13.30;;
14516;SDS011;7344;50.864;4.362;2023-08-17T14:51:57;14.57;;;11.77;;
14516;SDS011;7344;50.864;4.362;2023-08-17T14:54:22;14.48;;;13.07;;